sensor_id;sensor_type;location;lat;lon;timestamp;pressure;altitude;pressure_sealevel;temperature;humidity
50105;BME280;47690;39.202;-77.198;2024-01-30T00:01:33;100322.63;;;7.55;46.97
50105;BME280;47690;39.202;-77.198;2024-01-30T00:04:03;100329.47;;;7.54;47.19
50105;BME280;47690;39.202;-77.198;2024-01-30T00:06:32;100332.00;;;7.59;47.49
50105;BME280;47690;39.202;-77.198;2024-01-30T00:09:03;100332.00;;;7.59;47.26
50105;BME280;47690;39.202;-77.198;2024-01-30T00:11:34;100340.56;;;7.56;47.33
50105;BME280;47690;39.202;-77.198;2024-01-30T00:14:04;100336.31;;;7.54;47.44
50105;BME280;47690;39.202;-77.198;2024-01-30T00:16:34;100346.56;;;7.50;47.19
50105;BME280;47690;39.202;-77.198;2024-01-30T00:19:03;100337.16;;;7.43;47.19
50105;BME280;47690;39.202;-77.198;2024-01-30T00:21:34;100335.44;;;7.41;47.02
50105;BME280;47690;39.202;-77.198;2024-01-30T00:24:04;100355.13;;;7.40;47.15
50105;BME280;47690;39.202;-77.198;2024-01-30T00:26:35;100351.69;;;7.38;47.20
50105;BME280;47690;39.202;-77.198;2024-01-30T00:29:03;100366.19;;;7.41;47.31
50105;BME280;47690;39.202;-77.198;2024-01-30T00:31:35;100352.53;;;7.42;47.50
50105;BME280;47690;39.202;-77.198;2024-01-30T00:34:09;100367.91;;;7.32;48.06
50105;BME280;47690;39.202;-77.198;2024-01-30T00:36:38;100361.94;;;7.40;47.80
50105;BME280;47690;39.202;-77.198;2024-01-30T00:39:06;100367.06;;;7.26;48.23
50105;BME280;47690;39.202;-77.198;2024-01-30T00:41:37;100376.47;;;7.23;48.47
50105;BME280;47690;39.202;-77.198;2024-01-30T00:44:05;100382.44;;;7.44;48.01
50105;BME280;47690;39.202;-77.198;2024-01-30T00:46:34;100382.44;;;7.52;48.10
50105;BME280;47690;39.202;-77.198;2024-01-30T00:49:03;100387.56;;;7.52;47.65
50105;BME280;47690;39.202;-77.198;2024-01-30T00:51:36;100390.13;;;7.49;48.05
50105;BME280;47690;39.202;-77.198;2024-01-30T00:54:04;100381.59;;;7.51;47.95
50105;BME280;47690;39.202;-77.198;2024-01-30T00:56:36;100388.41;;;7.52;47.80
50105;BME280;47690;39.202;-77.198;2024-01-30T00:59:04;100389.28;;;7.51;47.78
50105;BME280;47690;39.202;-77.198;2024-01-30T01:01:34;100387.56;;;7.52;47.56
50105;BME280;47690;39.202;-77.198;2024-01-30T01:04:04;100390.13;;;7.50;47.96
50105;BME280;47690;39.202;-77.198;2024-01-30T01:06:34;100399.53;;;7.51;47.75
50105;BME280;47690;39.202;-77.198;2024-01-30T01:09:03;100399.53;;;7.55;47.88
50105;BME280;47690;39.202;-77.198;2024-01-30T01:11:32;100402.97;;;7.54;47.66
50105;BME280;47690;39.202;-77.198;2024-01-30T01:14:01;100413.22;;;7.52;47.68
50105;BME280;47690;39.202;-77.198;2024-01-30T01:16:34;100409.78;;;7.53;47.98
50105;BME280;47690;39.202;-77.198;2024-01-30T01:19:02;100416.63;;;7.54;48.02
50105;BME280;47690;39.202;-77.198;2024-01-30T01:21:32;100423.47;;;7.54;48.04
50105;BME280;47690;39.202;-77.198;2024-01-30T01:24:01;100419.19;;;7.56;48.10
50105;BME280;47690;39.202;-77.198;2024-01-30T01:26:31;100425.16;;;7.58;48.29
50105;BME280;47690;39.202;-77.198;2024-01-30T01:29:00;100432.88;;;7.61;47.93
50105;BME280;47690;39.202;-77.198;2024-01-30T01:31:29;100426.03;;;7.61;47.99
50105;BME280;47690;39.202;-77.198;2024-01-30T01:34:00;100436.28;;;7.61;48.14
50105;BME280;47690;39.202;-77.198;2024-01-30T01:36:30;100444.81;;;7.63;48.03
50105;BME280;47690;39.202;-77.198;2024-01-30T01:39:00;100445.69;;;7.64;48.15
50105;BME280;47690;39.202;-77.198;2024-01-30T01:41:31;100442.25;;;7.65;47.99
50105;BME280;47690;39.202;-77.198;2024-01-30T01:44:03;100449.97;;;7.67;47.99
50105;BME280;47690;39.202;-77.198;2024-01-30T01:46:34;100448.25;;;7.65;47.88
50105;BME280;47690;39.202;-77.198;2024-01-30T01:49:04;100443.13;;;7.64;47.57
50105;BME280;47690;39.202;-77.198;2024-01-30T01:51:35;100439.69;;;7.59;47.75
50105;BME280;47690;39.202;-77.198;2024-01-30T01:54:05;100448.22;;;7.56;47.95
50105;BME280;47690;39.202;-77.198;2024-01-30T01:56:35;100455.94;;;7.55;48.01
50105;BME280;47690;39.202;-77.198;2024-01-30T01:59:07;100452.50;;;7.54;48.01
50105;BME280;47690;39.202;-77.198;2024-01-30T02:01:37;100460.19;;;7.52;47.69
50105;BME280;47690;39.202;-77.198;2024-01-30T02:04:06;100456.78;;;7.52;48.03
50105;BME280;47690;39.202;-77.198;2024-01-30T02:06:35;100461.06;;;7.55;48.24
50105;BME280;47690;39.202;-77.198;2024-01-30T02:09:03;100465.34;;;7.56;48.24
50105;BME280;47690;39.202;-77.198;2024-01-30T02:11:34;100472.16;;;7.55;47.81
50105;BME280;47690;39.202;-77.198;2024-01-30T02:14:06;100480.72;;;7.56;48.14
50105;BME280;47690;39.202;-77.198;2024-01-30T02:16:35;100483.28;;;7.54;47.79
50105;BME280;47690;39.202;-77.198;2024-01-30T02:19:07;100476.44;;;7.53;47.91
50105;BME280;47690;39.202;-77.198;2024-01-30T02:21:37;100479.88;;;7.54;47.77
50105;BME280;47690;39.202;-77.198;2024-01-30T02:24:07;100480.72;;;7.54;48.15
50105;BME280;47690;39.202;-77.198;2024-01-30T02:26:35;100472.16;;;7.55;48.17
50105;BME280;47690;39.202;-77.198;2024-01-30T02:29:04;100479.84;;;7.55;47.97
50105;BME280;47690;39.202;-77.198;2024-01-30T02:31:34;100475.56;;;7.49;48.32
50105;BME280;47690;39.202;-77.198;2024-01-30T02:34:04;100479.00;;;7.51;48.30
50105;BME280;47690;39.202;-77.198;2024-01-30T02:36:34;100481.56;;;7.55;48.43
50105;BME280;47690;39.202;-77.198;2024-01-30T02:39:03;100478.16;;;7.59;48.34
50105;BME280;47690;39.202;-77.198;2024-01-30T02:41:33;100478.16;;;7.62;48.30
50105;BME280;47690;39.202;-77.198;2024-01-30T02:44:03;100482.41;;;7.61;48.22
50105;BME280;47690;39.202;-77.198;2024-01-30T02:46:33;100489.25;;;7.62;48.33
50105;BME280;47690;39.202;-77.198;2024-01-30T02:49:03;100483.28;;;7.65;48.14
50105;BME280;47690;39.202;-77.198;2024-01-30T02:51:34;100485.84;;;7.67;48.06
50105;BME280;47690;39.202;-77.198;2024-01-30T02:54:03;100483.28;;;7.70;48.26
50105;BME280;47690;39.202;-77.198;2024-01-30T02:56:34;100490.13;;;7.72;48.49
50105;BME280;47690;39.202;-77.198;2024-01-30T02:59:03;100490.97;;;7.74;48.30
50105;BME280;47690;39.202;-77.198;2024-01-30T03:01:42;100496.13;;;7.77;48.29
50105;BME280;47690;39.202;-77.198;2024-01-30T03:04:12;100502.09;;;7.78;48.37
50105;BME280;47690;39.202;-77.198;2024-01-30T03:06:47;100508.94;;;7.79;48.25
50105;BME280;47690;39.202;-77.198;2024-01-30T03:09:16;100502.09;;;7.79;48.29
50105;BME280;47690;39.202;-77.198;2024-01-30T03:11:45;100509.78;;;7.79;48.42
50105;BME280;47690;39.202;-77.198;2024-01-30T03:14:15;100507.22;;;7.79;48.03
50105;BME280;47690;39.202;-77.198;2024-01-30T03:16:43;100508.09;;;7.80;48.16
50105;BME280;47690;39.202;-77.198;2024-01-30T03:19:12;100509.81;;;7.83;48.02
50105;BME280;47690;39.202;-77.198;2024-01-30T03:21:40;100511.50;;;7.82;48.21
50105;BME280;47690;39.202;-77.198;2024-01-30T03:24:09;100508.94;;;7.82;47.98
50105;BME280;47690;39.202;-77.198;2024-01-30T03:26:38;100508.94;;;7.82;48.21
50105;BME280;47690;39.202;-77.198;2024-01-30T03:29:06;100511.50;;;7.82;48.29
50105;BME280;47690;39.202;-77.198;2024-01-30T03:31:39;100507.22;;;7.84;48.32
50105;BME280;47690;39.202;-77.198;2024-01-30T03:34:08;100505.50;;;7.88;48.39
50105;BME280;47690;39.202;-77.198;2024-01-30T03:36:37;100506.38;;;7.87;47.97
50105;BME280;47690;39.202;-77.198;2024-01-30T03:39:05;100518.34;;;7.89;48.11
50105;BME280;47690;39.202;-77.198;2024-01-30T03:41:34;100518.34;;;7.89;48.19
50105;BME280;47690;39.202;-77.198;2024-01-30T03:44:03;100513.22;;;7.91;48.26
50105;BME280;47690;39.202;-77.198;2024-01-30T03:46:34;100509.78;;;7.90;48.35
50105;BME280;47690;39.202;-77.198;2024-01-30T03:49:03;100515.78;;;7.92;47.92
50105;BME280;47690;39.202;-77.198;2024-01-30T03:51:39;100518.34;;;7.94;48.06
50105;BME280;47690;39.202;-77.198;2024-01-30T03:54:08;100520.91;;;7.94;47.97
50105;BME280;47690;39.202;-77.198;2024-01-30T03:56:37;100520.06;;;7.95;48.32
50105;BME280;47690;39.202;-77.198;2024-01-30T03:59:06;100520.94;;;7.97;48.22
50105;BME280;47690;39.202;-77.198;2024-01-30T04:01:34;100515.78;;;7.96;47.86
50105;BME280;47690;39.202;-77.198;2024-01-30T04:04:03;100523.47;;;7.99;48.23
50105;BME280;47690;39.202;-77.198;2024-01-30T04:06:34;100525.19;;;7.98;48.37
50105;BME280;47690;39.202;-77.198;2024-01-30T04:09:02;100518.34;;;7.99;48.14
50105;BME280;47690;39.202;-77.198;2024-01-30T04:11:32;100526.03;;;8.00;48.00
50105;BME280;47690;39.202;-77.198;2024-01-30T04:14:03;100518.34;;;8.00;47.97
50105;BME280;47690;39.202;-77.198;2024-01-30T04:16:35;100522.63;;;8.00;48.12
50105;BME280;47690;39.202;-77.198;2024-01-30T04:19:04;100530.31;;;8.00;48.10
50105;BME280;47690;39.202;-77.198;2024-01-30T04:21:34;100528.63;;;7.97;48.33
50105;BME280;47690;39.202;-77.198;2024-01-30T04:24:04;100526.06;;;7.97;48.30
50105;BME280;47690;39.202;-77.198;2024-01-30T04:26:33;100531.19;;;7.97;48.30
50105;BME280;47690;39.202;-77.198;2024-01-30T04:29:02;100531.19;;;8.00;48.18
50105;BME280;47690;39.202;-77.198;2024-01-30T04:31:32;100532.88;;;8.01;48.32
50105;BME280;47690;39.202;-77.198;2024-01-30T04:34:02;100535.44;;;8.01;48.42
50105;BME280;47690;39.202;-77.198;2024-01-30T04:36:33;100539.72;;;8.01;48.56
50105;BME280;47690;39.202;-77.198;2024-01-30T04:39:03;100535.44;;;8.01;48.33
50105;BME280;47690;39.202;-77.198;2024-01-30T04:41:32;100543.16;;;8.01;47.92
50105;BME280;47690;39.202;-77.198;2024-01-30T04:44:03;100544.84;;;8.01;48.28
50105;BME280;47690;39.202;-77.198;2024-01-30T04:46:32;100550.84;;;8.01;47.93
50105;BME280;47690;39.202;-77.198;2024-01-30T04:49:03;100550.00;;;7.99;48.30
50105;BME280;47690;39.202;-77.198;2024-01-30T04:51:33;100546.59;;;7.97;48.05
50105;BME280;47690;39.202;-77.198;2024-01-30T04:54:02;100547.41;;;7.98;48.09
50105;BME280;47690;39.202;-77.198;2024-01-30T04:56:32;100545.72;;;7.97;48.21
50105;BME280;47690;39.202;-77.198;2024-01-30T04:59:01;100543.16;;;7.97;48.19
50105;BME280;47690;39.202;-77.198;2024-01-30T05:01:31;100534.59;;;7.96;48.35
50105;BME280;47690;39.202;-77.198;2024-01-30T05:04:01;100536.31;;;7.96;48.17
50105;BME280;47690;39.202;-77.198;2024-01-30T05:06:33;100538.88;;;7.96;48.20
50105;BME280;47690;39.202;-77.198;2024-01-30T05:09:03;100538.88;;;7.97;48.45
50105;BME280;47690;39.202;-77.198;2024-01-30T05:11:40;100538.00;;;7.97;48.35
50105;BME280;47690;39.202;-77.198;2024-01-30T05:14:09;100536.28;;;7.92;48.11
50105;BME280;47690;39.202;-77.198;2024-01-30T05:16:39;100534.59;;;7.90;48.60
50105;BME280;47690;39.202;-77.198;2024-01-30T05:19:08;100535.44;;;7.90;48.34
50105;BME280;47690;39.202;-77.198;2024-01-30T05:21:37;100538.84;;;7.92;48.57
50105;BME280;47690;39.202;-77.198;2024-01-30T05:24:06;100538.84;;;7.92;48.24
50105;BME280;47690;39.202;-77.198;2024-01-30T05:26:38;100531.19;;;7.91;48.11
50105;BME280;47690;39.202;-77.198;2024-01-30T05:29:10;100531.16;;;7.94;48.19
50105;BME280;47690;39.202;-77.198;2024-01-30T05:31:39;100537.16;;;7.91;48.34
50105;BME280;47690;39.202;-77.198;2024-01-30T05:34:09;100541.44;;;7.91;48.37
50105;BME280;47690;39.202;-77.198;2024-01-30T05:36:38;100544.84;;;7.91;48.30
50105;BME280;47690;39.202;-77.198;2024-01-30T05:39:07;100544.00;;;7.92;48.26
50105;BME280;47690;39.202;-77.198;2024-01-30T05:41:36;100546.56;;;7.94;48.35
50105;BME280;47690;39.202;-77.198;2024-01-30T05:44:06;100542.31;;;7.95;48.38
50105;BME280;47690;39.202;-77.198;2024-01-30T05:46:35;100538.03;;;7.93;48.00
50105;BME280;47690;39.202;-77.198;2024-01-30T05:49:05;100538.03;;;7.92;47.99
50105;BME280;47690;39.202;-77.198;2024-01-30T05:51:36;100535.47;;;7.92;48.38
50105;BME280;47690;39.202;-77.198;2024-01-30T05:54:05;100537.16;;;7.91;48.52
50105;BME280;47690;39.202;-77.198;2024-01-30T05:56:34;100543.16;;;7.92;48.29
50105;BME280;47690;39.202;-77.198;2024-01-30T05:59:03;100545.69;;;7.89;48.07
50105;BME280;47690;39.202;-77.198;2024-01-30T06:01:33;100542.31;;;7.90;48.23
50105;BME280;47690;39.202;-77.198;2024-01-30T06:04:03;100548.28;;;7.87;48.33
50105;BME280;47690;39.202;-77.198;2024-01-30T06:06:33;100538.00;;;7.89;48.07
50105;BME280;47690;39.202;-77.198;2024-01-30T06:09:03;100545.72;;;7.90;47.91
50105;BME280;47690;39.202;-77.198;2024-01-30T06:11:37;100550.00;;;7.90;48.34
50105;BME280;47690;39.202;-77.198;2024-01-30T06:14:06;100550.84;;;7.87;48.15
50105;BME280;47690;39.202;-77.198;2024-01-30T06:16:35;100551.69;;;7.86;48.35
50105;BME280;47690;39.202;-77.198;2024-01-30T06:19:03;100550.81;;;7.89;48.29
50105;BME280;47690;39.202;-77.198;2024-01-30T06:21:34;100551.69;;;7.91;48.31
50105;BME280;47690;39.202;-77.198;2024-01-30T06:24:05;100548.28;;;7.93;48.11
50105;BME280;47690;39.202;-77.198;2024-01-30T06:26:34;100552.56;;;7.95;48.25
50105;BME280;47690;39.202;-77.198;2024-01-30T06:29:04;100558.56;;;7.93;47.85
50105;BME280;47690;39.202;-77.198;2024-01-30T06:31:33;100554.25;;;7.94;48.03
50105;BME280;47690;39.202;-77.198;2024-01-30T06:34:02;100555.13;;;7.93;47.83
50105;BME280;47690;39.202;-77.198;2024-01-30T06:36:33;100558.53;;;7.95;48.18
50105;BME280;47690;39.202;-77.198;2024-01-30T06:39:06;100557.69;;;7.99;47.92
50105;BME280;47690;39.202;-77.198;2024-01-30T06:41:35;100557.69;;;7.99;47.91
50105;BME280;47690;39.202;-77.198;2024-01-30T06:44:04;100563.66;;;8.01;47.92
50105;BME280;47690;39.202;-77.198;2024-01-30T06:46:35;100574.81;;;8.02;48.03
50105;BME280;47690;39.202;-77.198;2024-01-30T06:49:03;100565.38;;;8.02;47.93
50105;BME280;47690;39.202;-77.198;2024-01-30T06:51:35;100567.94;;;8.02;47.84
50105;BME280;47690;39.202;-77.198;2024-01-30T06:54:04;100571.38;;;8.03;47.65
50105;BME280;47690;39.202;-77.198;2024-01-30T06:56:33;100579.91;;;8.03;47.85
50105;BME280;47690;39.202;-77.198;2024-01-30T06:59:03;100571.34;;;8.04;47.80
50105;BME280;47690;39.202;-77.198;2024-01-30T07:01:33;100574.78;;;8.05;47.63
50105;BME280;47690;39.202;-77.198;2024-01-30T07:04:03;100579.91;;;8.05;47.65
50105;BME280;47690;39.202;-77.198;2024-01-30T07:06:33;100571.34;;;8.04;47.61
50105;BME280;47690;39.202;-77.198;2024-01-30T07:09:03;100566.25;;;8.03;47.63
50105;BME280;47690;39.202;-77.198;2024-01-30T07:11:36;100572.22;;;8.03;47.64
50105;BME280;47690;39.202;-77.198;2024-01-30T07:14:05;100569.66;;;8.03;47.61
50105;BME280;47690;39.202;-77.198;2024-01-30T07:16:35;100567.09;;;8.00;47.54
50105;BME280;47690;39.202;-77.198;2024-01-30T07:19:04;100579.06;;;8.01;47.73
50105;BME280;47690;39.202;-77.198;2024-01-30T07:21:34;100580.78;;;8.02;47.92
50105;BME280;47690;39.202;-77.198;2024-01-30T07:24:03;100575.63;;;8.02;47.65
50105;BME280;47690;39.202;-77.198;2024-01-30T07:26:32;100575.63;;;8.02;47.68
50105;BME280;47690;39.202;-77.198;2024-01-30T07:29:01;100573.91;;;8.04;47.83
50105;BME280;47690;39.202;-77.198;2024-01-30T07:31:35;100588.50;;;8.05;47.71
50105;BME280;47690;39.202;-77.198;2024-01-30T07:34:05;100589.31;;;8.04;47.89
50105;BME280;47690;39.202;-77.198;2024-01-30T07:36:34;100592.75;;;8.05;47.53
50105;BME280;47690;39.202;-77.198;2024-01-30T07:39:04;100599.59;;;8.06;47.32
50105;BME280;47690;39.202;-77.198;2024-01-30T07:41:34;100594.44;;;8.04;47.68
50105;BME280;47690;39.202;-77.198;2024-01-30T07:44:05;100587.59;;;8.03;47.56
50105;BME280;47690;39.202;-77.198;2024-01-30T07:46:34;100591.88;;;8.04;47.94
50105;BME280;47690;39.202;-77.198;2024-01-30T07:49:03;100582.50;;;8.02;47.67
50105;BME280;47690;39.202;-77.198;2024-01-30T07:51:34;100580.78;;;8.02;47.83
50105;BME280;47690;39.202;-77.198;2024-01-30T07:54:04;100592.75;;;8.03;47.93
50105;BME280;47690;39.202;-77.198;2024-01-30T07:56:34;100599.56;;;8.04;48.18
50105;BME280;47690;39.202;-77.198;2024-01-30T07:59:04;100595.31;;;8.03;47.79
50105;BME280;47690;39.202;-77.198;2024-01-30T08:01:34;100602.16;;;8.03;48.00
50105;BME280;47690;39.202;-77.198;2024-01-30T08:04:03;100597.03;;;8.01;48.25
50105;BME280;47690;39.202;-77.198;2024-01-30T08:06:33;100589.31;;;8.04;48.09
50105;BME280;47690;39.202;-77.198;2024-01-30T08:09:02;100596.19;;;8.05;48.23
50105;BME280;47690;39.202;-77.198;2024-01-30T08:11:33;100598.75;;;8.05;47.90
50105;BME280;47690;39.202;-77.198;2024-01-30T08:14:04;100603.03;;;8.06;48.16
50105;BME280;47690;39.202;-77.198;2024-01-30T08:16:32;100603.03;;;8.06;48.15
50105;BME280;47690;39.202;-77.198;2024-01-30T08:19:05;100598.75;;;8.05;47.88
50105;BME280;47690;39.202;-77.198;2024-01-30T08:21:35;100589.31;;;8.04;47.78
50105;BME280;47690;39.202;-77.198;2024-01-30T08:24:07;100582.50;;;8.05;48.11
50105;BME280;47690;39.202;-77.198;2024-01-30T08:26:37;100591.88;;;8.04;47.66
50105;BME280;47690;39.202;-77.198;2024-01-30T08:29:06;100592.75;;;8.03;47.49
50105;BME280;47690;39.202;-77.198;2024-01-30T08:31:36;100599.56;;;8.04;47.95
50105;BME280;47690;39.202;-77.198;2024-01-30T08:34:06;100603.84;;;8.02;47.68
50105;BME280;47690;39.202;-77.198;2024-01-30T08:36:37;100600.44;;;8.03;47.53
50105;BME280;47690;39.202;-77.198;2024-01-30T08:39:06;100594.47;;;8.01;48.06
50105;BME280;47690;39.202;-77.198;2024-01-30T08:41:37;100596.16;;;8.01;48.07
50105;BME280;47690;39.202;-77.198;2024-01-30T08:44:07;100587.63;;;7.97;47.76
50105;BME280;47690;39.202;-77.198;2024-01-30T08:46:35;100585.91;;;7.98;47.80
50105;BME280;47690;39.202;-77.198;2024-01-30T08:49:04;100588.47;;;7.98;47.95
50105;BME280;47690;39.202;-77.198;2024-01-30T08:51:35;100574.78;;;7.99;48.02
50105;BME280;47690;39.202;-77.198;2024-01-30T08:54:08;100569.66;;;8.00;47.84
50105;BME280;47690;39.202;-77.198;2024-01-30T08:56:37;100574.81;;;8.02;47.79
50105;BME280;47690;39.202;-77.198;2024-01-30T08:59:06;100567.09;;;8.03;47.78
50105;BME280;47690;39.202;-77.198;2024-01-30T09:01:40;100564.53;;;8.02;47.65
50105;BME280;47690;39.202;-77.198;2024-01-30T09:04:22;100567.94;;;8.02;47.49
50105;BME280;47690;39.202;-77.198;2024-01-30T09:06:53;100567.94;;;7.98;47.68
50105;BME280;47690;39.202;-77.198;2024-01-30T09:09:22;100574.81;;;7.97;47.87
50105;BME280;47690;39.202;-77.198;2024-01-30T09:11:51;100583.31;;;7.96;47.66
50105;BME280;47690;39.202;-77.198;2024-01-30T09:14:20;100585.03;;;7.94;47.76
50105;BME280;47690;39.202;-77.198;2024-01-30T09:16:49;100581.63;;;7.92;48.12
50105;BME280;47690;39.202;-77.198;2024-01-30T09:19:18;100584.19;;;7.92;48.02
50105;BME280;47690;39.202;-77.198;2024-01-30T09:21:47;100582.47;;;7.91;47.92
50105;BME280;47690;39.202;-77.198;2024-01-30T09:24:16;100585.91;;;7.88;47.74
50105;BME280;47690;39.202;-77.198;2024-01-30T09:26:44;100582.47;;;7.86;48.42
50105;BME280;47690;39.202;-77.198;2024-01-30T09:29:13;100579.91;;;7.85;48.21
50105;BME280;47690;39.202;-77.198;2024-01-30T09:31:47;100574.78;;;7.86;48.52
50105;BME280;47690;39.202;-77.198;2024-01-30T09:34:17;100573.91;;;7.89;48.62
50105;BME280;47690;39.202;-77.198;2024-01-30T09:36:46;100579.06;;;7.90;48.36
50105;BME280;47690;39.202;-77.198;2024-01-30T09:39:15;100583.34;;;7.88;48.72
50105;BME280;47690;39.202;-77.198;2024-01-30T09:41:48;100575.63;;;7.82;48.75
50105;BME280;47690;39.202;-77.198;2024-01-30T09:44:19;100585.03;;;7.88;48.74
50105;BME280;47690;39.202;-77.198;2024-01-30T09:46:49;100583.31;;;7.85;48.62
50105;BME280;47690;39.202;-77.198;2024-01-30T09:49:20;100587.56;;;7.82;48.60
50105;BME280;47690;39.202;-77.198;2024-01-30T09:51:49;100591.00;;;7.82;48.70
50105;BME280;47690;39.202;-77.198;2024-01-30T09:54:19;100591.88;;;7.81;48.86
50105;BME280;47690;39.202;-77.198;2024-01-30T09:56:47;100601.28;;;7.82;48.68
50105;BME280;47690;39.202;-77.198;2024-01-30T09:59:16;100608.94;;;7.81;48.84
50105;BME280;47690;39.202;-77.198;2024-01-30T10:01:45;100613.22;;;7.78;48.66
50105;BME280;47690;39.202;-77.198;2024-01-30T10:04:15;100607.25;;;7.75;49.02
50105;BME280;47690;39.202;-77.198;2024-01-30T10:06:44;100614.06;;;7.76;48.94
50105;BME280;47690;39.202;-77.198;2024-01-30T10:09:13;100609.81;;;7.76;48.70
50105;BME280;47690;39.202;-77.198;2024-01-30T10:11:42;100615.78;;;7.77;48.90
50105;BME280;47690;39.202;-77.198;2024-01-30T10:14:10;100617.50;;;7.76;49.08
50105;BME280;47690;39.202;-77.198;2024-01-30T10:16:39;100623.50;;;7.78;48.95
50105;BME280;47690;39.202;-77.198;2024-01-30T10:19:08;100627.75;;;7.79;48.69
50105;BME280;47690;39.202;-77.198;2024-01-30T10:21:36;100618.38;;;7.80;48.94
50105;BME280;47690;39.202;-77.198;2024-01-30T10:24:05;100626.91;;;7.77;48.80
50105;BME280;47690;39.202;-77.198;2024-01-30T10:26:34;100624.34;;;7.77;49.23
50105;BME280;47690;39.202;-77.198;2024-01-30T10:29:03;100625.19;;;7.78;48.86
50105;BME280;47690;39.202;-77.198;2024-01-30T10:31:33;100618.34;;;7.82;49.02
50105;BME280;47690;39.202;-77.198;2024-01-30T10:34:07;100621.81;;;7.84;48.73
50105;BME280;47690;39.202;-77.198;2024-01-30T10:36:50;100620.91;;;7.82;48.88
50105;BME280;47690;39.202;-77.198;2024-01-30T10:39:24;100618.38;;;7.78;48.86
50105;BME280;47690;39.202;-77.198;2024-01-30T10:42:04;100620.94;;;7.80;49.18
50105;BME280;47690;39.202;-77.198;2024-01-30T10:44:58;100614.94;;;7.84;48.84
50105;BME280;47690;39.202;-77.198;2024-01-30T10:47:30;100616.66;;;7.82;48.74
50105;BME280;47690;39.202;-77.198;2024-01-30T10:50:04;100620.94;;;7.80;48.65
50105;BME280;47690;39.202;-77.198;2024-01-30T10:52:34;100624.34;;;7.77;48.81
50105;BME280;47690;39.202;-77.198;2024-01-30T10:55:07;100637.16;;;7.76;48.75
50105;BME280;47690;39.202;-77.198;2024-01-30T10:57:40;100639.72;;;7.73;49.04
50105;BME280;47690;39.202;-77.198;2024-01-30T11:00:14;100639.72;;;7.74;48.85
50105;BME280;47690;39.202;-77.198;2024-01-30T11:02:45;100646.56;;;7.74;49.16
50105;BME280;47690;39.202;-77.198;2024-01-30T11:05:14;100645.69;;;7.70;49.19
50105;BME280;47690;39.202;-77.198;2024-01-30T11:07:45;100646.53;;;7.71;48.95
50105;BME280;47690;39.202;-77.198;2024-01-30T11:10:15;100645.69;;;7.70;48.95
50105;BME280;47690;39.202;-77.198;2024-01-30T11:12:43;100647.41;;;7.74;48.91
50105;BME280;47690;39.202;-77.198;2024-01-30T11:15:18;100652.53;;;7.74;48.82
50105;BME280;47690;39.202;-77.198;2024-01-30T11:17:53;100653.38;;;7.73;48.85
50105;BME280;47690;39.202;-77.198;2024-01-30T11:20:27;100649.94;;;7.70;48.95
50105;BME280;47690;39.202;-77.198;2024-01-30T11:22:56;100648.25;;;7.69;48.84
50105;BME280;47690;39.202;-77.198;2024-01-30T11:25:25;100661.91;;;7.71;49.01
50105;BME280;47690;39.202;-77.198;2024-01-30T11:27:55;100660.25;;;7.73;48.92
50105;BME280;47690;39.202;-77.198;2024-01-30T11:30:32;100653.41;;;7.72;48.96
50105;BME280;47690;39.202;-77.198;2024-01-30T11:33:05;100668.75;;;7.67;49.11
50105;BME280;47690;39.202;-77.198;2024-01-30T11:35:37;100673.84;;;7.62;49.25
50105;BME280;47690;39.202;-77.198;2024-01-30T11:38:10;100678.13;;;7.59;49.26
50105;BME280;47690;39.202;-77.198;2024-01-30T11:40:43;100677.25;;;7.57;49.20
50105;BME280;47690;39.202;-77.198;2024-01-30T11:43:15;100693.50;;;7.56;49.40
50105;BME280;47690;39.202;-77.198;2024-01-30T11:45:45;100697.78;;;7.54;49.32
50105;BME280;47690;39.202;-77.198;2024-01-30T11:48:17;100695.22;;;7.54;49.38
50105;BME280;47690;39.202;-77.198;2024-01-30T11:50:48;100702.03;;;7.53;49.57
50105;BME280;47690;39.202;-77.198;2024-01-30T11:53:18;100700.31;;;7.55;49.36
50105;BME280;47690;39.202;-77.198;2024-01-30T11:55:50;100706.31;;;7.59;49.21
50105;BME280;47690;39.202;-77.198;2024-01-30T11:58:20;100700.31;;;7.55;49.43
50105;BME280;47690;39.202;-77.198;2024-01-30T12:00:57;100697.78;;;7.58;49.71
50105;BME280;47690;39.202;-77.198;2024-01-30T12:03:29;100708.88;;;7.59;49.46
50105;BME280;47690;39.202;-77.198;2024-01-30T12:06:00;100716.56;;;7.59;49.48
50105;BME280;47690;39.202;-77.198;2024-01-30T12:08:30;100705.47;;;7.57;49.87
50105;BME280;47690;39.202;-77.198;2024-01-30T12:11:06;100702.03;;;7.58;49.70
50105;BME280;47690;39.202;-77.198;2024-01-30T12:13:34;100700.34;;;7.58;49.71
50105;BME280;47690;39.202;-77.198;2024-01-30T12:16:04;100703.75;;;7.59;49.47
50105;BME280;47690;39.202;-77.198;2024-01-30T12:18:34;100703.78;;;7.57;49.43
50105;BME280;47690;39.202;-77.198;2024-01-30T12:21:03;100700.34;;;7.57;49.75
50105;BME280;47690;39.202;-77.198;2024-01-30T12:23:33;100710.56;;;7.55;49.31
50105;BME280;47690;39.202;-77.198;2024-01-30T12:26:04;100706.34;;;7.57;49.60
50105;BME280;47690;39.202;-77.198;2024-01-30T12:28:47;100718.31;;;7.61;49.62
50105;BME280;47690;39.202;-77.198;2024-01-30T12:31:17;100721.69;;;7.59;49.01
50105;BME280;47690;39.202;-77.198;2024-01-30T12:33:49;100721.72;;;7.57;49.52
50105;BME280;47690;39.202;-77.198;2024-01-30T12:36:19;100718.28;;;7.57;49.18
50105;BME280;47690;39.202;-77.198;2024-01-30T12:38:47;100721.69;;;7.56;49.32
50105;BME280;47690;39.202;-77.198;2024-01-30T12:41:16;100714.00;;;7.56;49.52
50105;BME280;47690;39.202;-77.198;2024-01-30T12:43:45;100725.13;;;7.59;49.54
50105;BME280;47690;39.202;-77.198;2024-01-30T12:46:17;100736.22;;;7.60;49.24
50105;BME280;47690;39.202;-77.198;2024-01-30T12:48:45;100740.53;;;7.59;49.52
50105;BME280;47690;39.202;-77.198;2024-01-30T12:51:14;100742.22;;;7.60;49.38
50105;BME280;47690;39.202;-77.198;2024-01-30T12:53:43;100733.69;;;7.58;48.92
50105;BME280;47690;39.202;-77.198;2024-01-30T12:56:12;100742.22;;;7.59;49.35